Time;durP1;ratioP1;P1;durP2;ratioP2;P2;SDS_P1;SDS_P2;PMS_P1;PMS_P2;Temp;Humidity;BMP_temperature;BMP_pressure;BME280_temperature;BME280_humidity;BME280_pressure;Samples;Min_cycle;Max_cycle;Signal;HPM_P1;HPM_P2
2022/11/21 00:00:25;;;;;;;;;;;;;;;3.74;100.00;100402.13;4973594;28;19918;-61
2022/11/21 00:02:50;;;;;;;;;;;;;;;3.75;100.00;100427.59;4973319;28;19918;-62
2022/11/21 00:05:16;;;;;;;;;;;;;;;3.69;100.00;100426.75;4973522;28;19918;-61
2022/11/21 00:07:41;;;;;;;;;;;;;;;3.64;100.00;100434.94;4972132;28;19957;-61
2022/11/21 00:10:06;;;;;;;;;;;;;;;3.58;100.00;100444.22;4973611;28;19968;-61
2022/11/21 00:12:31;;;;;;;;;;;;;;;3.58;100.00;100447.81;4973147;28;20362;-60
2022/11/21 00:14:57;;;;;;;;;;;;;;;3.45;100.00;100439.28;4971688;28;19953;-62
2022/11/21 00:17:22;;;;;;;;;;;;;;;3.36;100.00;100437.03;4972787;28;20000;-62
2022/11/21 00:19:47;;;;;;;;;;;;;;;3.32;100.00;100437.84;4973430;28;19918;-61
2022/11/21 00:22:13;;;;;;;;;;;;;;;3.31;100.00;100444.41;4973245;28;19961;-62
2022/11/21 00:24:38;;;;;;;;;;;;;;;3.25;100.00;100444.38;4973316;28;19928;-61
2022/11/21 00:27:03;;;;;;;;;;;;;;;3.21;100.00;100451.47;4973640;28;19914;-61
2022/11/21 00:29:28;;;;;;;;;;;;;;;3.20;100.00;100459.94;4973204;28;19921;-61
2022/11/21 00:31:54;;;;;;;;;;;;;;;3.16;100.00;100465.13;4973415;28;19973;-61
2022/11/21 00:34:19;;;;;;;;;;;;;;;3.10;100.00;100466.19;4973271;28;19945;-62
2022/11/21 00:36:44;;;;;;;;;;;;;;;3.08;100.00;100482.84;4973293;28;19921;-59
2022/11/21 00:39:09;;;;;;;;;;;;;;;3.05;100.00;100479.81;4970731;28;19914;-61
2022/11/21 00:41:35;;;;;;;;;;;;;;;2.99;100.00;100470.75;4973215;28;19921;-62
2022/11/21 00:44:00;;;;;;;;;;;;;;;2.89;100.00;100457.88;4973161;28;20456;-62
2022/11/21 00:46:25;;;;;;;;;;;;;;;2.81;100.00;100453.72;4973144;28;19914;-61
2022/11/21 00:48:50;;;;;;;;;;;;;;;2.79;100.00;100439.50;4971259;28;19914;-61
2022/11/21 00:51:16;;;;;;;;;;;;;;;2.82;100.00;100435.44;4957700;28;20060;-61
2022/11/21 00:53:41;;;;;;;;;;;;;;;2.86;100.00;100431.06;4976669;28;20001;-61
2022/11/21 00:56:06;;;;;;;;;;;;;;;2.86;100.00;100427.53;4975366;28;20023;-61
2022/11/21 00:58:31;;;;;;;;;;;;;;;2.84;100.00;100438.69;4976675;28;19921;-60
2022/11/21 01:01:08;;;;;;;;;;;;;;;2.84;100.00;100437.88;4976476;28;19914;-62
2022/11/21 01:03:34;;;;;;;;;;;;;;;2.86;100.00;100436.53;4976553;28;20028;-60
2022/11/21 01:06:06;;;;;;;;;;;;;;;2.81;100.00;100441.97;4976477;28;19914;-61
2022/11/21 01:08:33;;;;;;;;;;;;;;;2.77;100.00;100436.22;4976732;28;19936;-60
2022/11/21 01:11:01;;;;;;;;;;;;;;;2.79;100.00;100447.69;4976485;28;19918;-60
2022/11/21 01:13:26;;;;;;;;;;;;;;;2.83;100.00;100450.75;4976297;28;19964;-61
2022/11/21 01:15:51;;;;;;;;;;;;;;;2.87;100.00;100459.22;4976383;28;19917;-61
2022/11/21 01:18:16;;;;;;;;;;;;;;;2.84;100.00;100451.56;4976107;28;19918;-61
2022/11/21 01:20:41;;;;;;;;;;;;;;;2.80;100.00;100456.72;4976234;28;20377;-60
2022/11/21 01:23:07;;;;;;;;;;;;;;;2.74;100.00;100449.59;4976175;28;19917;-60
2022/11/21 01:25:32;;;;;;;;;;;;;;;2.75;100.00;100453.94;4976154;28;19921;-60
2022/11/21 01:27:58;;;;;;;;;;;;;;;2.78;100.00;100450.69;4976049;28;19914;-61
2022/11/21 01:30:23;;;;;;;;;;;;;;;2.77;100.00;100452.63;4974617;28;20024;-61
2022/11/21 01:32:48;;;;;;;;;;;;;;;2.78;100.00;100451.53;4976087;28;19922;-61
2022/11/21 01:35:14;;;;;;;;;;;;;;;2.81;100.00;100458.38;4974260;28;19921;-61
2022/11/21 01:37:39;;;;;;;;;;;;;;;2.78;100.00;100453.44;4976145;28;19954;-60
2022/11/21 01:40:04;;;;;;;;;;;;;;;2.77;100.00;100449.03;4976137;28;19922;-61
2022/11/21 01:42:42;;;;;;;;;;;;;;;2.76;100.00;100452.84;4975977;28;19918;-61
2022/11/21 01:45:26;;;;;;;;;;;;;;;2.76;100.00;100452.84;4976368;28;19952;-62
2022/11/21 01:47:51;;;;;;;;;;;;;;;2.74;100.00;100449.59;4976083;28;19921;-61
2022/11/21 01:50:16;;;;;;;;;;;;;;;2.73;100.00;100443.28;4975686;28;19918;-61
2022/11/21 01:52:42;;;;;;;;;;;;;;;2.76;100.00;100447.41;4975563;28;19914;-61
2022/11/21 01:55:09;;;;;;;;;;;;;;;2.74;100.00;100434.00;4975808;28;19941;-61
2022/11/21 01:57:38;;;;;;;;;;;;;;;2.73;100.00;100434.28;4976065;28;19921;-61
2022/11/21 02:00:22;;;;;;;;;;;;;;;2.73;100.00;100431.56;4974436;28;19918;-61
2022/11/21 02:02:51;;;;;;;;;;;;;;;2.73;100.00;100437.00;4975656;28;19925;-62
2022/11/21 02:05:19;;;;;;;;;;;;;;;2.75;100.00;100441.13;4975542;28;19918;-61
2022/11/21 02:07:46;;;;;;;;;;;;;;;2.76;100.00;100440.03;4975611;28;20152;-61
2022/11/21 02:10:13;;;;;;;;;;;;;;;2.78;100.00;100446.06;4975435;28;19918;-62
2022/11/21 02:12:38;;;;;;;;;;;;;;;2.79;100.00;100439.50;4975215;28;19914;-61
2022/11/21 02:15:03;;;;;;;;;;;;;;;2.81;100.00;100439.25;4975484;28;20269;-62
2022/11/21 02:17:29;;;;;;;;;;;;;;;2.84;100.00;100444.16;4975196;28;19965;-64
2022/11/21 02:19:56;;;;;;;;;;;;;;;2.89;100.00;100449.69;4975372;28;20009;-64
2022/11/21 02:22:27;;;;;;;;;;;;;;;2.94;100.00;100452.41;4975244;28;19914;-64
2022/11/21 02:25:15;;;;;;;;;;;;;;;2.93;100.00;100444.50;4975142;28;19937;-64
2022/11/21 02:27:41;;;;;;;;;;;;;;;2.94;100.00;100455.16;4974599;28;20004;-61
2022/11/21 02:30:07;;;;;;;;;;;;;;;2.97;100.00;100451.09;4974772;28;20306;-61
2022/11/21 02:32:34;;;;;;;;;;;;;;;3.02;100.00;100455.75;4971690;28;19973;-62
2022/11/21 02:34:59;;;;;;;;;;;;;;;3.03;100.00;100465.59;4975287;28;19918;-61
2022/11/21 02:37:24;;;;;;;;;;;;;;;2.99;100.00;100472.69;4974943;28;19997;-61
2022/11/21 02:39:49;;;;;;;;;;;;;;;2.96;100.00;100474.84;4974943;28;20253;-61
2022/11/21 02:42:47;;;;;;;;;;;;;;;2.97;100.00;100481.16;4974959;28;20004;-61
2022/11/21 02:45:18;;;;;;;;;;;;;;;2.95;100.00;100483.31;4973558;28;19980;-61
2022/11/21 02:47:44;;;;;;;;;;;;;;;2.93;100.00;100472.63;4975260;28;19963;-62
2022/11/21 02:50:14;;;;;;;;;;;;;;;2.90;100.00;100475.91;4974743;28;19950;-61
2022/11/21 02:52:40;;;;;;;;;;;;;;;2.79;100.00;100466.81;4974610;28;19970;-61
2022/11/21 02:55:05;;;;;;;;;;;;;;;2.87;100.00;100467.44;4974615;28;19918;-61
2022/11/21 02:57:30;;;;;;;;;;;;;;;2.87;100.00;100468.22;4973262;28;19996;-61
2022/11/21 02:59:56;;;;;;;;;;;;;;;2.86;100.00;100473.97;4974540;28;19914;-61
2022/11/21 03:02:21;;;;;;;;;;;;;;;2.86;100.00;100471.25;4974266;28;19921;-61
2022/11/21 03:04:46;;;;;;;;;;;;;;;2.86;100.00;100469.31;4974176;28;20385;-61
2022/11/21 03:07:12;;;;;;;;;;;;;;;2.83;100.00;100471.75;4974268;28;20365;-60
2022/11/21 03:09:37;;;;;;;;;;;;;;;2.83;100.00;100475.34;4973956;28;19968;-62
2022/11/21 03:12:06;;;;;;;;;;;;;;;2.84;100.00;100470.69;4973799;28;19918;-61
2022/11/21 03:14:31;;;;;;;;;;;;;;;2.85;100.00;100467.66;4973122;28;19941;-61
2022/11/21 03:16:56;;;;;;;;;;;;;;;2.84;100.00;100451.56;4974149;28;20377;-62
2022/11/21 03:19:21;;;;;;;;;;;;;;;2.83;100.00;100453.47;4973894;28;20274;-62
2022/11/21 03:21:47;;;;;;;;;;;;;;;2.85;100.00;100454.00;4974009;28;19914;-62
2022/11/21 03:24:12;;;;;;;;;;;;;;;2.87;100.00;100448.31;4974178;28;20016;-62
2022/11/21 03:26:37;;;;;;;;;;;;;;;2.87;100.00;100442.84;4974020;28;20368;-62
2022/11/21 03:29:02;;;;;;;;;;;;;;;2.88;100.00;100436.28;4971558;28;19918;-62
2022/11/21 03:31:28;;;;;;;;;;;;;;;2.86;100.00;100430.25;4973997;28;19918;-62
2022/11/21 03:33:53;;;;;;;;;;;;;;;2.88;100.00;100431.63;4972324;28;19925;-61
2022/11/21 03:36:18;;;;;;;;;;;;;;;2.89;100.00;100432.44;4972342;28;19920;-62
2022/11/21 03:38:43;;;;;;;;;;;;;;;2.90;100.00;100432.19;4973905;28;19953;-62
2022/11/21 03:41:28;;;;;;;;;;;;;;;2.91;100.00;100433.00;4974050;28;19925;-62
2022/11/21 03:43:53;;;;;;;;;;;;;;;2.92;100.00;100429.19;4973628;28;19993;-61
2022/11/21 03:46:18;;;;;;;;;;;;;;;2.94;100.00;100433.28;4973738;28;20373;-63
2022/11/21 03:48:43;;;;;;;;;;;;;;;2.95;100.00;100432.22;4973662;28;19914;-60
2022/11/21 03:51:08;;;;;;;;;;;;;;;2.96;100.00;100436.59;4973441;28;19942;-61
2022/11/21 03:53:34;;;;;;;;;;;;;;;2.97;100.00;100431.97;4972048;28;19936;-61
2022/11/21 03:55:59;;;;;;;;;;;;;;;2.97;100.00;100431.97;4973809;28;19968;-61
2022/11/21 03:58:24;;;;;;;;;;;;;;;2.97;100.00;100434.69;4973563;28;19953;-61
2022/11/21 04:00:49;;;;;;;;;;;;;;;2.95;100.00;100434.94;4973565;28;20279;-60
2022/11/21 04:03:14;;;;;;;;;;;;;;;2.95;100.00;100429.47;4973526;28;20287;-60
2022/11/21 04:05:40;;;;;;;;;;;;;;;2.96;100.00;100436.59;4973339;28;20373;-61
2022/11/21 04:08:05;;;;;;;;;;;;;;;2.96;100.00;100424.84;4973214;28;19921;-61
2022/11/21 04:10:30;;;;;;;;;;;;;;;2.97;100.00;100431.97;4973089;28;19921;-61
2022/11/21 04:12:55;;;;;;;;;;;;;;;2.94;100.00;100437.94;4973379;28;20384;-62
2022/11/21 04:15:20;;;;;;;;;;;;;;;2.93;100.00;100444.50;4973707;28;19968;-62
2022/11/21 04:17:45;;;;;;;;;;;;;;;2.94;100.00;100446.97;4972946;28;19928;-61
2022/11/21 04:20:11;;;;;;;;;;;;;;;2.95;100.00;100439.59;4973345;28;19914;-62
2022/11/21 04:22:36;;;;;;;;;;;;;;;2.93;100.00;100447.22;4973233;28;20374;-62
2022/11/21 04:25:01;;;;;;;;;;;;;;;2.89;100.00;100460.59;4971810;28;20005;-61
2022/11/21 04:27:26;;;;;;;;;;;;;;;2.84;100.00;100460.56;4970959;28;19914;-62
2022/11/21 04:29:51;;;;;;;;;;;;;;;2.83;100.00;100447.16;4971590;28;19914;-62
2022/11/21 04:32:16;;;;;;;;;;;;;;;2.84;100.00;100454.28;4973297;28;20004;-62
2022/11/21 04:34:42;;;;;;;;;;;;;;;2.86;100.00;100443.91;4973184;28;19914;-61
2022/11/21 04:37:07;;;;;;;;;;;;;;;2.87;100.00;100440.91;4972994;28;20079;-61
2022/11/21 04:39:32;;;;;;;;;;;;;;;2.88;100.00;100447.22;4972921;28;19914;-61
2022/11/21 04:41:57;;;;;;;;;;;;;;;2.85;100.00;100440.34;4972855;28;19922;-62
2022/11/21 04:44:22;;;;;;;;;;;;;;;2.87;100.00;100446.38;4972805;28;19956;-62
2022/11/21 04:46:47;;;;;;;;;;;;;;;2.90;100.00;100431.34;4972835;28;19914;-62
2022/11/21 04:49:13;;;;;;;;;;;;;;;2.89;100.00;100424.25;4972886;28;19918;-62
2022/11/21 04:51:38;;;;;;;;;;;;;;;2.92;100.00;100421.00;4972963;28;19996;-62
2022/11/21 04:54:03;;;;;;;;;;;;;;;2.93;100.00;100417.19;4973063;28;20057;-62
2022/11/21 04:56:28;;;;;;;;;;;;;;;2.95;100.00;100420.47;4972817;28;19917;-61
2022/11/21 04:58:54;;;;;;;;;;;;;;;2.96;100.00;100411.19;4972881;28;20001;-62
2022/11/21 05:01:19;;;;;;;;;;;;;;;2.95;100.00;100402.16;4972782;28;19925;-61
2022/11/21 05:03:44;;;;;;;;;;;;;;;2.93;100.00;100406.25;4972727;28;19917;-62
2022/11/21 05:06:09;;;;;;;;;;;;;;;2.93;100.00;100404.31;4973007;28;19921;-62
2022/11/21 05:08:35;;;;;;;;;;;;;;;2.95;100.00;100399.41;4972923;28;19918;-62
2022/11/21 05:13:43;;;;;;;;;;;;;;;2.96;100.00;100392.06;4973316;28;19972;-62
2022/11/21 05:16:09;;;;;;;;;;;;;;;2.95;100.00;100384.94;4973144;28;19915;-62
2022/11/21 05:18:34;;;;;;;;;;;;;;;2.95;100.00;100385.75;4971115;28;19918;-62
2022/11/21 05:21:00;;;;;;;;;;;;;;;2.93;100.00;100373.47;4972464;28;19914;-61
2022/11/21 05:23:25;;;;;;;;;;;;;;;2.92;100.00;100382.75;4972383;28;19914;-62
2022/11/21 05:25:50;;;;;;;;;;;;;;;2.92;100.00;100378.13;4972689;28;19921;-62
2022/11/21 05:28:15;;;;;;;;;;;;;;;2.93;100.00;100374.25;4969673;28;20358;-61
2022/11/21 05:30:40;;;;;;;;;;;;;;;2.95;100.00;100376.75;4972208;28;19918;-60
2022/11/21 05:33:06;;;;;;;;;;;;;;;2.95;100.00;100371.28;4972329;28;19921;-61
2022/11/21 05:35:31;;;;;;;;;;;;;;;2.94;100.00;100366.91;4972477;28;19918;-61
2022/11/21 05:37:56;;;;;;;;;;;;;;;2.92;100.00;100371.81;4975718;28;19914;-61
2022/11/21 05:40:22;;;;;;;;;;;;;;;2.90;100.00;100374.81;4975990;28;20004;-60
2022/11/21 05:45:31;;;;;;;;;;;;;;;2.88;100.00;100382.44;4976198;28;19925;-61
2022/11/21 05:47:56;;;;;;;;;;;;;;;2.86;100.00;100387.34;4976213;28;19918;-61
2022/11/21 05:50:21;;;;;;;;;;;;;;;2.86;100.00;100381.09;4976070;28;19980;-61
2022/11/21 05:52:46;;;;;;;;;;;;;;;2.88;100.00;100376.19;4976445;28;19914;-61
2022/11/21 05:55:12;;;;;;;;;;;;;;;2.89;100.00;100373.16;4976084;28;19914;-61
2022/11/21 05:57:37;;;;;;;;;;;;;;;2.88;100.00;100370.72;4975915;28;19918;-62
2022/11/21 06:00:02;;;;;;;;;;;;;;;2.89;100.00;100369.59;4974461;28;19922;-61
2022/11/21 06:05:11;;;;;;;;;;;;;;;2.94;100.00;100367.72;4976199;28;19966;-61
2022/11/21 06:07:37;;;;;;;;;;;;;;;2.94;100.00;100358.72;4975930;28;20334;-61
2022/11/21 06:10:02;;;;;;;;;;;;;;;2.91;100.00;100351.03;4976105;28;19921;-61
2022/11/21 06:12:27;;;;;;;;;;;;;;;2.92;100.00;100356.25;4975211;28;19914;-61
2022/11/21 06:14:52;;;;;;;;;;;;;;;2.93;100.00;100363.34;4974731;28;19914;-61
2022/11/21 06:17:18;;;;;;;;;;;;;;;2.95;100.00;100354.88;4973464;28;19914;-61
2022/11/21 06:19:43;;;;;;;;;;;;;;;2.94;100.00;100351.31;4973840;28;19917;-62
2022/11/21 06:22:08;;;;;;;;;;;;;;;2.96;100.00;100359.28;4974065;28;19917;-62
2022/11/21 06:24:33;;;;;;;;;;;;;;;2.96;100.00;100354.63;4972930;28;19914;-63
2022/11/21 06:26:58;;;;;;;;;;;;;;;2.97;100.00;100358.19;4991189;28;19917;-61
2022/11/21 06:29:24;;;;;;;;;;;;;;;2.97;100.00;100358.19;4994048;28;19917;-60
2022/11/21 06:31:49;;;;;;;;;;;;;;;2.98;100.00;100351.59;4993881;28;20682;-60
2022/11/21 06:34:15;;;;;;;;;;;;;;;3.00;100.00;100351.34;4993681;28;19968;-61
2022/11/21 06:36:43;;;;;;;;;;;;;;;3.01;100.00;100345.63;4993614;28;20016;-59
2022/11/21 06:39:08;;;;;;;;;;;;;;;3.03;100.00;100335.25;4993619;28;19925;-60
2022/11/21 06:41:33;;;;;;;;;;;;;;;3.06;100.00;100337.44;4993437;28;19917;-60
2022/11/21 06:44:02;;;;;;;;;;;;;;;3.09;100.00;100331.44;4993482;28;19918;-61
2022/11/21 06:46:27;;;;;;;;;;;;;;;3.10;100.00;100319.41;4993415;28;19913;-60
2022/11/21 06:48:52;;;;;;;;;;;;;;;3.12;100.00;100316.38;4992119;28;19925;-61
2022/11/21 06:51:19;;;;;;;;;;;;;;;3.15;100.00;100334.19;4992987;28;19966;-59
2022/11/21 06:53:45;;;;;;;;;;;;;;;3.17;100.00;100319.16;4992972;28;20334;-60
2022/11/21 06:56:10;;;;;;;;;;;;;;;3.19;100.00;100321.59;4991973;28;20019;-63
2022/11/21 06:58:36;;;;;;;;;;;;;;;3.21;100.00;100325.72;4993247;28;19968;-62
2022/11/21 07:01:05;;;;;;;;;;;;;;;3.23;100.00;100323.53;4993153;28;20388;-61
2022/11/21 07:03:30;;;;;;;;;;;;;;;3.24;100.00;100316.97;4992982;28;19940;-60
2022/11/21 07:05:59;;;;;;;;;;;;;;;3.28;100.00;100320.81;4993827;28;20342;-61
2022/11/21 07:08:24;;;;;;;;;;;;;;;3.33;100.00;100310.97;4993886;28;19937;-62
2022/11/21 07:10:49;;;;;;;;;;;;;;;3.36;100.00;100314.00;4993655;28;19921;-63
2022/11/21 07:13:22;;;;;;;;;;;;;;;3.39;100.00;100316.19;4993472;28;20369;-60
2022/11/21 07:15:50;;;;;;;;;;;;;;;3.41;100.00;100324.94;4993537;28;19955;-60
2022/11/21 07:18:15;;;;;;;;;;;;;;;3.45;100.00;100327.16;4993526;28;20377;-62
2022/11/21 07:20:40;;;;;;;;;;;;;;;3.48;100.00;100321.97;4993581;28;19944;-61
2022/11/21 07:23:06;;;;;;;;;;;;;;;3.50;100.00;100317.00;4993626;28;20004;-62
2022/11/21 07:25:32;;;;;;;;;;;;;;;3.54;100.00;100309.13;4993065;28;19914;-61
2022/11/21 07:28:00;;;;;;;;;;;;;;;3.55;100.00;100299.78;4993353;28;19968;-62
2022/11/21 07:30:28;;;;;;;;;;;;;;;3.57;100.00;100294.88;4993486;28;19924;-61
2022/11/21 07:32:54;;;;;;;;;;;;;;;3.59;100.00;100284.47;4993059;28;19946;-61
2022/11/21 07:35:20;;;;;;;;;;;;;;;3.61;100.00;100290.50;4993288;28;19944;-62
2022/11/21 07:37:45;;;;;;;;;;;;;;;3.62;100.00;100294.88;4993175;28;20300;-61
2022/11/21 07:40:10;;;;;;;;;;;;;;;3.63;100.00;100292.97;4993315;28;19964;-61
2022/11/21 07:42:35;;;;;;;;;;;;;;;3.65;100.00;100290.78;4993271;28;19967;-61
2022/11/21 07:45:01;;;;;;;;;;;;;;;3.67;100.00;100296.81;4993193;28;19918;-61
2022/11/21 07:47:26;;;;;;;;;;;;;;;3.68;100.00;100291.06;4993453;28;19952;-62
2022/11/21 07:49:51;;;;;;;;;;;;;;;3.70;100.00;100296.25;4993433;28;19975;-62
2022/11/21 07:52:16;;;;;;;;;;;;;;;3.73;100.00;100295.69;4993413;28;19918;-61
2022/11/21 07:54:41;;;;;;;;;;;;;;;3.75;100.00;100290.78;4993507;28;19917;-61
2022/11/21 07:57:07;;;;;;;;;;;;;;;3.78;100.00;100286.69;4991951;28;20373;-61
2022/11/21 07:59:32;;;;;;;;;;;;;;;3.80;100.00;100289.97;4993039;28;19944;-61
2022/11/21 08:01:57;;;;;;;;;;;;;;;3.84;100.00;100288.31;4993432;28;20339;-61
2022/11/21 08:04:22;;;;;;;;;;;;;;;3.86;100.00;100292.44;4993338;28;20404;-62
2022/11/21 08:06:48;;;;;;;;;;;;;;;3.89;100.00;100286.38;4993044;28;19914;-61
2022/11/21 08:09:13;;;;;;;;;;;;;;;3.92;100.00;100281.47;4992947;28;19917;-62
2022/11/21 08:11:38;;;;;;;;;;;;;;;3.95;100.00;100276.25;4993540;28;19960;-61
2022/11/21 08:14:03;;;;;;;;;;;;;;;3.96;100.00;100274.34;4992956;28;19921;-61
2022/11/21 08:16:31;;;;;;;;;;;;;;;3.97;100.00;100278.75;4993033;28;19940;-61
2022/11/21 08:18:57;;;;;;;;;;;;;;;4.00;100.00;100279.00;4993093;28;20219;-61
2022/11/21 08:21:22;;;;;;;;;;;;;;;4.04;100.00;100277.34;4993217;28;19928;-61
2022/11/21 08:23:47;;;;;;;;;;;;;;;4.10;100.00;100266.41;4993123;28;19924;-61
2022/11/21 08:26:12;;;;;;;;;;;;;;;4.16;100.00;100266.09;4992847;28;19925;-61
2022/11/21 08:28:38;;;;;;;;;;;;;;;4.25;100.00;100268.28;4993003;28;19925;-62
2022/11/21 08:31:03;;;;;;;;;;;;;;;4.37;100.00;100258.66;4992880;28;19921;-61
2022/11/21 08:33:29;;;;;;;;;;;;;;;4.52;100.00;100262.41;4992786;28;20365;-62
2022/11/21 08:35:54;;;;;;;;;;;;;;;4.61;100.00;100254.44;4992760;28;20385;-62
2022/11/21 08:38:19;;;;;;;;;;;;;;;4.68;100.00;100255.78;4992639;28;19937;-62
2022/11/21 08:40:44;;;;;;;;;;;;;;;4.75;100.00;100246.44;4992527;28;19917;-62
2022/11/21 08:43:09;;;;;;;;;;;;;;;4.76;100.00;100240.66;4992046;28;19960;-62
2022/11/21 08:45:35;;;;;;;;;;;;;;;4.78;100.00;100238.47;4991847;28;20419;-62
2022/11/21 08:48:01;;;;;;;;;;;;;;;4.77;100.00;100239.56;4991983;28;20384;-62
2022/11/21 08:50:30;;;;;;;;;;;;;;;4.76;100.00;100226.16;4992224;28;20004;-61
2022/11/21 08:53:00;;;;;;;;;;;;;;;4.75;100.00;100228.06;4992836;28;19922;-62
2022/11/21 08:55:25;;;;;;;;;;;;;;;4.75;100.00;100228.06;4992622;28;20037;-60
2022/11/21 08:57:50;;;;;;;;;;;;;;;4.74;100.00;100226.44;4992240;28;20321;-60
2022/11/21 09:00:15;;;;;;;;;;;;;;;4.74;100.00;100226.44;4980053;28;19918;-61
2022/11/21 09:02:41;;;;;;;;;;;;;;;4.75;100.00;100219.84;4971801;28;19914;-60
2022/11/21 09:05:07;;;;;;;;;;;;;;;4.75;100.00;100224.53;4971795;28;19925;-61
2022/11/21 09:07:32;;;;;;;;;;;;;;;4.74;100.00;100218.22;4971723;28;20385;-62
2022/11/21 09:09:57;;;;;;;;;;;;;;;4.75;100.00;100213.56;4971784;28;19922;-62
2022/11/21 09:12:22;;;;;;;;;;;;;;;4.74;100.00;100207.25;4972563;28;19947;-61
2022/11/21 09:20:15;;;;;;;;;;;;;;;4.76;100.00;100196.81;4963300;28;19940;-60
2022/11/21 09:22:41;;;;;;;;;;;;;;;4.76;100.00;100196.81;4975850;28;20441;-60
2022/11/21 09:25:06;;;;;;;;;;;;;;;4.76;100.00;100196.81;4975595;28;19968;-61
2022/11/21 09:27:31;;;;;;;;;;;;;;;4.78;100.00;100199.28;4975444;28;19945;-61
2022/11/21 09:29:57;;;;;;;;;;;;;;;4.79;100.00;100193.53;4974655;28;20001;-62
2022/11/21 09:32:22;;;;;;;;;;;;;;;4.80;100.00;100191.59;4972292;28;19922;-61
2022/11/21 09:34:48;;;;;;;;;;;;;;;4.81;100.00;100191.34;4963287;28;20406;-61
2022/11/21 09:37:13;;;;;;;;;;;;;;;4.83;100.00;100186.38;4957245;28;19972;-61
2022/11/21 09:39:38;;;;;;;;;;;;;;;4.87;100.00;100191.28;4956029;28;19919;-61
2022/11/21 09:42:22;;;;;;;;;;;;;;;4.93;100.00;100192.88;4956726;28;19918;-61
2022/11/21 09:44:56;;;;;;;;;;;;;;;5.02;100.00;100193.91;4956598;28;19918;-61
2022/11/21 09:47:23;;;;;;;;;;;;;;;5.07;100.00;100185.66;4955933;28;19949;-61
2022/11/21 09:49:58;;;;;;;;;;;;;;;5.13;100.00;100181.78;4955930;28;19918;-61
2022/11/21 09:52:25;;;;;;;;;;;;;;;5.19;100.00;100176.25;4956919;28;19925;-61
2022/11/21 09:54:54;;;;;;;;;;;;;;;5.22;100.00;100175.69;4965493;28;19937;-61
2022/11/21 09:57:21;;;;;;;;;;;;;;;5.23;100.00;100178.16;4970392;28;19937;-61
2022/11/21 09:59:47;;;;;;;;;;;;;;;5.26;100.00;100163.84;4955590;28;19929;-60
2022/11/21 10:02:16;;;;;;;;;;;;;;;5.31;100.00;100172.03;4958600;28;19945;-60
2022/11/21 10:04:42;;;;;;;;;;;;;;;5.35;100.00;100161.31;4976813;28;19917;-62
2022/11/21 10:07:28;;;;;;;;;;;;;;;5.40;100.00;100158.50;4967060;28;19940;-62
2022/11/21 10:10:09;;;;;;;;;;;;;;;5.42;100.00;100156.31;4970317;28;20322;-63
2022/11/21 10:12:50;;;;;;;;;;;;;;;5.44;100.00;100158.75;4961707;28;19922;-60
2022/11/21 10:15:34;;;;;;;;;;;;;;;5.47;100.00;100149.94;4973877;28;19996;-62
2022/11/21 10:18:18;;;;;;;;;;;;;;;5.50;100.00;100149.38;4969018;28;19922;-60
2022/11/21 10:20:53;;;;;;;;;;;;;;;5.56;100.00;100145.47;4954093;28;19925;-60
2022/11/21 10:23:30;;;;;;;;;;;;;;;5.58;100.00;100140.53;4964504;28;20235;-61
2022/11/21 10:25:59;;;;;;;;;;;;;;;5.64;100.00;100135.81;4956283;28;19914;-61
2022/11/21 10:28:51;;;;;;;;;;;;;;;5.69;100.00;100135.72;4963859;28;19972;-62
2022/11/21 10:31:16;;;;;;;;;;;;;;;5.74;100.00;100124.72;4946536;28;20013;-61
2022/11/21 10:33:42;;;;;;;;;;;;;;;5.77;100.00;100118.63;4970570;28;20005;-61
2022/11/21 10:36:10;;;;;;;;;;;;;;;5.81;100.00;100118.84;4967404;28;19921;-62
2022/11/21 10:38:40;;;;;;;;;;;;;;;5.84;100.00;100121.03;4968480;28;19914;-62
2022/11/21 10:41:25;;;;;;;;;;;;;;;5.83;100.00;100113.91;4972899;28;20283;-61
2022/11/21 10:46:58;;;;;;;;;;;;;;;5.85;100.00;100111.69;4964038;28;19945;-62
2022/11/21 10:49:24;;;;;;;;;;;;;;;5.88;100.00;100105.63;4984103;28;20464;-62
2022/11/21 10:51:59;;;;;;;;;;;;;;;5.89;100.00;100101.75;4992908;28;19955;-61
2022/11/21 10:54:34;;;;;;;;;;;;;;;5.88;100.00;100102.88;4965985;28;20656;-62
2022/11/21 10:57:18;;;;;;;;;;;;;;;5.88;100.00;100096.53;4954394;29;19919;-62
2022/11/21 11:00:13;;;;;;;;;;;;;;;5.88;100.00;100100.13;4967851;28;19941;-63
2022/11/21 11:02:42;;;;;;;;;;;;;;;5.92;100.00;100094.88;4957938;28;19917;-63
2022/11/21 11:05:26;;;;;;;;;;;;;;;5.97;100.00;100088.50;4964886;28;19914;-63
2022/11/21 11:08:17;;;;;;;;;;;;;;;6.03;100.00;100087.34;4959314;28;19921;-61
2022/11/21 11:11:03;;;;;;;;;;;;;;;6.10;100.00;100074.06;4953250;29;19973;-61
2022/11/21 11:16:00;;;;;;;;;;;;;;;6.24;100.00;100058.50;4973309;28;20041;-61
2022/11/21 11:18:25;;;;;;;;;;;;;;;6.37;100.00;100059.69;4961266;28;19914;-62
2022/11/21 11:20:51;;;;;;;;;;;;;;;6.48;100.00;100056.78;4970594;28;19977;-62
2022/11/21 11:23:26;;;;;;;;;;;;;;;6.57;100.00;100046.75;4972945;28;20356;-62
2022/11/21 11:25:56;;;;;;;;;;;;;;;6.64;100.00;100054.63;4961897;28;19922;-61
2022/11/21 11:28:24;;;;;;;;;;;;;;;6.72;100.00;100035.50;4968808;28;19918;-61
2022/11/21 11:30:51;;;;;;;;;;;;;;;6.82;100.00;100039.19;4962905;28;20029;-61
2022/11/21 11:33:31;;;;;;;;;;;;;;;6.90;100.00;100032.19;4972743;28;19945;-63
2022/11/21 11:36:03;;;;;;;;;;;;;;;6.96;100.00;100030.97;4972935;28;19997;-61
2022/11/21 11:38:29;;;;;;;;;;;;;;;6.99;100.00;100024.88;4963782;28;20029;-62
2022/11/21 11:40:55;;;;;;;;;;;;;;;7.00;100.00;100019.09;4972063;28;19996;-63
2022/11/21 11:50:09;;;;;;;;;;;;;;;7.08;100.00;100006.56;4967380;28;19929;-62
2022/11/21 11:52:19;;;;;;;;;;;;;;;7.14;100.00;99996.28;4972034;28;19973;-62
2022/11/21 11:54:48;;;;;;;;;;;;;;;7.13;100.00;99984.47;4962830;28;19914;-60
2022/11/21 11:57:13;;;;;;;;;;;;;;;7.18;100.00;99976.13;4964569;28;19925;-62
2022/11/21 11:59:42;;;;;;;;;;;;;;;7.23;100.00;99969.72;4969253;28;19922;-60
2022/11/21 12:02:26;;;;;;;;;;;;;;;7.26;100.00;99965.53;4964473;28;20037;-60
2022/11/21 12:04:54;;;;;;;;;;;;;;;7.29;100.00;99967.69;4958075;28;19914;-60
2022/11/21 12:07:30;;;;;;;;;;;;;;;7.29;100.00;99962.19;4972653;28;19925;-61
2022/11/21 12:10:13;;;;;;;;;;;;;;;7.29;100.00;99956.66;4975096;28;20273;-62
2022/11/21 12:12:40;;;;;;;;;;;;;;;7.26;100.00;99947.09;4971977;28;20417;-61
2022/11/21 12:18:08;;;;;;;;;;;;;;;7.22;100.00;99934.25;4963015;28;19959;-60
2022/11/21 12:20:43;;;;;;;;;;;;;;;7.21;100.00;99929.88;4972433;28;19976;-59
2022/11/21 12:23:09;;;;;;;;;;;;;;;7.13;100.00;99926.69;4971126;28;19965;-62
2022/11/21 12:25:38;;;;;;;;;;;;;;;7.10;100.00;99918.25;4971697;28;19961;-62
2022/11/21 12:28:06;;;;;;;;;;;;;;;7.02;99.92;99917.84;4968628;28;19918;-62
2022/11/21 12:30:44;;;;;;;;;;;;;;;6.99;100.00;99907.44;4962830;28;19922;-62
2022/11/21 12:33:15;;;;;;;;;;;;;;;6.97;100.00;99903.38;4972501;28;19989;-61
2022/11/21 12:35:43;;;;;;;;;;;;;;;6.93;100.00;99902.38;4955465;28;19922;-60
2022/11/21 12:38:14;;;;;;;;;;;;;;;6.94;100.00;99896.56;4968083;28;20056;-60
2022/11/21 12:40:57;;;;;;;;;;;;;;;6.93;100.00;99888.63;4952821;29;19918;-61
2022/11/21 12:43:37;;;;;;;;;;;;;;;6.94;100.00;99882.81;4952000;28;19915;-61
2022/11/21 12:46:28;;;;;;;;;;;;;;;6.93;100.00;99875.69;4951020;28;20701;-60
2022/11/21 12:54:48;;;;;;;;;;;;;;;6.91;100.00;99844.91;4952310;29;20037;-60
2022/11/21 12:57:17;;;;;;;;;;;;;;;7.02;100.00;99868.34;4951845;28;19915;-60
2022/11/21 13:00:01;;;;;;;;;;;;;;;7.09;100.00;99848.69;4952953;28;19919;-61
2022/11/21 13:02:44;;;;;;;;;;;;;;;7.13;100.00;99844.19;4952664;28;19918;-60
2022/11/21 13:05:12;;;;;;;;;;;;;;;7.15;100.00;99830.94;4952448;29;20374;-61
2022/11/21 13:07:38;;;;;;;;;;;;;;;7.20;100.00;99824.53;4950988;28;20470;-61
2022/11/21 13:10:04;;;;;;;;;;;;;;;7.20;100.00;99820.97;4952365;28;19965;-60
2022/11/21 13:12:39;;;;;;;;;;;;;;;7.22;100.00;99815.97;4951208;28;19997;-60
2022/11/21 13:15:13;;;;;;;;;;;;;;;7.21;100.00;99815.16;4952958;28;19922;-60